aviador You're here:

KOVE Decoded Metar

OROVILLE in CA, USA
Report Time2017-03-23 03:53:00
UTC Time2017-03-23 04:16:27
Flight Rules vfr VFR
Wind080° at 05 kt
W.Decomp.*RWY 02: 3.6 kt HW 3.5 kt RCW
RWY 13: 2.0 kt HW 4.6 kt LCW
W.Rank080° ranks 8
Current wind is below 080° avg. (5.3)
Visibility9999 m
Phenomena:N/A
Clouds:Few 090 Hf
Expected CloudBase > 1,200 ft AGL from Temp-Dew spread
CeilingNone
Temp10°C (ISA -5)
Dew Point07°C (82% RH)
AAT7.5°C
QNH1018 hPa
Density Alt-397 ft
Elevation190 ft
Report Wrong Elevation
Raw Report
METAR KOVE 230353Z AUTO 08005KT 10SM FEW090 10/07 A3007 RMK AO2 RAE27
SLP183 P0000 T01000072=

Extra information for KOVE:More info

Metar Taf Metar & Taf Last 4 Metars F.Rules Stats Wind Profile Meteogram Temp Stats Airport Information Weather charts Add Link Nearby VenuesMetar ALERT Operation Metar Decoded Social comments

AIRNAV info for KOVE